createdAt,value
2019-04-16T00:02:06.864Z,101419.44
2019-04-16T00:04:56.712Z,101421.22
2019-04-16T00:07:47.074Z,101423.33
2019-04-16T00:10:36.115Z,101416.20
2019-04-16T00:13:24.840Z,101421.06
2019-04-16T00:15:55.002Z,101417.38
2019-04-16T00:18:25.060Z,101413.46
2019-04-16T00:21:31.892Z,101419.02
2019-04-16T00:24:20.554Z,101413.64
2019-04-16T00:26:57.834Z,101414.17
2019-04-16T00:29:26.007Z,101405.17
2019-04-16T00:32:21.055Z,101407.77
2019-04-16T00:34:50.890Z,101407.80
2019-04-16T00:37:21.566Z,101411.34
2019-04-16T00:39:55.539Z,101407.73
2019-04-16T00:42:23.339Z,101408.70
2019-04-16T00:44:53.390Z,101405.69
2019-04-16T00:47:23.165Z,101411.73
2019-04-16T00:49:57.534Z,101407.64
2019-04-16T00:52:24.788Z,101399.33
2019-04-16T00:54:54.665Z,101400.72
2019-04-16T00:57:24.465Z,101401.92
2019-04-16T00:59:56.345Z,101399.77
2019-04-16T01:02:25.963Z,101397.72
2019-04-16T01:04:55.739Z,101398.70
2019-04-16T01:07:25.548Z,101397.86
2019-04-16T01:09:56.622Z,101395.61
2019-04-16T01:12:26.610Z,101392.61
2019-04-16T01:14:59.574Z,101398.42
2019-04-16T01:17:27.916Z,101386.72
2019-04-16T01:19:57.794Z,101396.16
2019-04-16T01:22:27.711Z,101397.19
2019-04-16T01:24:57.464Z,101391.69
2019-04-16T01:27:52.154Z,101388.45
2019-04-16T01:30:36.297Z,101391.47
2019-04-16T01:33:14.733Z,101390.50
2019-04-16T01:36:02.955Z,101387.28
2019-04-16T01:38:44.109Z,101383.52
2019-04-16T01:41:15.686Z,101387.27
2019-04-16T01:43:45.391Z,101389.65
2019-04-16T01:46:15.216Z,101387.08
2019-04-16T01:48:45.192Z,101381.06
2019-04-16T01:51:16.107Z,101383.31
2019-04-16T01:53:46.090Z,101379.78
2019-04-16T01:56:15.993Z,101375.90
2019-04-16T01:58:45.913Z,101377.98
2019-04-16T02:01:15.886Z,101377.19
2019-04-16T02:03:48.592Z,101373.58
2019-04-16T02:06:17.367Z,101377.48
2019-04-16T02:08:47.229Z,101383.20
2019-04-16T02:11:18.200Z,101377.10
2019-04-16T02:13:47.863Z,101379.10
2019-04-16T02:16:17.677Z,101374.31
2019-04-16T02:18:47.339Z,101373.11
2019-04-16T02:21:17.226Z,101372.61
2019-04-16T02:23:48.057Z,101369.84
2019-04-16T02:26:20.610Z,101371.97
2019-04-16T02:28:50.137Z,101370.80
2019-04-16T02:31:19.950Z,101367.38
2019-04-16T02:33:49.710Z,101367.34
2019-04-16T02:36:19.506Z,101367.92
2019-04-16T02:38:53.256Z,101366.77
2019-04-16T02:41:23.401Z,101372.81
2019-04-16T02:43:52.599Z,101361.27
2019-04-16T02:46:22.540Z,101376.55
2019-04-16T02:48:52.401Z,101366.61
2019-04-16T02:51:45.592Z,101371.19
2019-04-16T02:54:20.628Z,101362.72
2019-04-16T02:57:15.151Z,101363.17
2019-04-16T02:59:47.259Z,101365.25
2019-04-16T03:02:34.546Z,101370.13
2019-04-16T03:05:26.433Z,101367.59
2019-04-16T03:07:55.290Z,101369.73
2019-04-16T03:10:24.963Z,101353.14
2019-04-16T03:12:55.243Z,101361.77
2019-04-16T03:15:42.563Z,101365.84
2019-04-16T03:18:15.239Z,101363.84
2019-04-16T03:20:44.974Z,101370.78
2019-04-16T03:23:14.737Z,101366.08
2019-04-16T03:25:45.127Z,101364.23
2019-04-16T03:28:15.331Z,101369.75
2019-04-16T03:30:45.116Z,101364.05
2019-04-16T03:33:16.030Z,101364.94
2019-04-16T03:35:46.207Z,101365.34
2019-04-16T03:38:15.983Z,101365.37
2019-04-16T03:40:45.798Z,101368.73
2019-04-16T03:43:16.121Z,101366.63
2019-04-16T03:45:45.836Z,101371.77
2019-04-16T03:48:15.852Z,101382.34
2019-04-16T03:50:45.807Z,101374.75
2019-04-16T03:53:17.769Z,101377.32
2019-04-16T03:55:47.017Z,101379.72
2019-04-16T03:58:16.868Z,101384.30
2019-04-16T04:00:46.651Z,101384.30
2019-04-16T04:03:16.666Z,101383.84
2019-04-16T04:05:55.507Z,101389.53
2019-04-16T04:08:25.752Z,101386.64
2019-04-16T04:10:56.673Z,101384.77
2019-04-16T04:13:27.792Z,101388.98
2019-04-16T04:15:58.628Z,101387.86
2019-04-16T04:18:29.601Z,101392.89
2019-04-16T04:20:59.513Z,101392.75
2019-04-16T04:23:29.538Z,101399.27
2019-04-16T04:25:59.254Z,101398.36
2019-04-16T04:28:29.162Z,101400.59
2019-04-16T04:31:00.912Z,101398.44
2019-04-16T04:33:42.703Z,101396.96
2019-04-16T04:36:12.242Z,101398.24
2019-04-16T04:38:42.184Z,101404.27
2019-04-16T04:41:12.075Z,101400.52
2019-04-16T04:43:42.040Z,101398.88
2019-04-16T04:46:14.497Z,101401.41
2019-04-16T04:48:43.643Z,101394.45
2019-04-16T04:51:13.497Z,101401.52
2019-04-16T04:53:43.278Z,101400.05
2019-04-16T04:56:13.183Z,101406.16
2019-04-16T04:58:43.050Z,101400.44
2019-04-16T05:01:14.177Z,101402.72
2019-04-16T05:04:21.461Z,101409.92
2019-04-16T05:06:54.339Z,101406.92
2019-04-16T05:09:23.732Z,101410.73
2019-04-16T05:11:54.583Z,101414.60
2019-04-16T05:14:26.088Z,101419.02
2019-04-16T05:16:55.835Z,101420.15
2019-04-16T05:19:25.647Z,101422.84
2019-04-16T05:21:55.688Z,101419.63
2019-04-16T05:24:28.914Z,101425.96
2019-04-16T05:26:57.010Z,101421.39
2019-04-16T05:29:26.870Z,101424.59
2019-04-16T05:31:57.386Z,101422.77
2019-04-16T05:34:28.067Z,101420.19
2019-04-16T05:36:57.935Z,101419.56
2019-04-16T05:39:29.083Z,101422.34
2019-04-16T05:41:58.935Z,101421.53
2019-04-16T05:44:33.231Z,101423.92
2019-04-16T05:47:00.154Z,101424.97
2019-04-16T05:49:30.025Z,101423.14
2019-04-16T05:52:02.849Z,101418.75
2019-04-16T05:54:44.293Z,101415.77
2019-04-16T05:57:16.406Z,101413.11
2019-04-16T05:59:46.310Z,101411.83
2019-04-16T06:02:21.630Z,101413.41
2019-04-16T06:04:55.593Z,101413.65
2019-04-16T06:07:22.841Z,101412.56
2019-04-16T06:09:52.590Z,101411.53
2019-04-16T06:12:24.013Z,101403.80
2019-04-16T06:15:04.051Z,101403.98
2019-04-16T06:17:51.703Z,101411.42
2019-04-16T06:20:38.188Z,101404.34
2019-04-16T06:23:31.730Z,101403.67
2019-04-16T06:26:26.061Z,101399.94
2019-04-16T06:29:13.702Z,101392.41
2019-04-16T06:31:57.036Z,101388.45
2019-04-16T06:35:03.919Z,101393.33
2019-04-16T06:38:04.312Z,101402.86
2019-04-16T06:40:54.328Z,101409.72
2019-04-16T06:43:29.557Z,101414.93
2019-04-16T06:46:18.530Z,101420.72
2019-04-16T06:49:09.783Z,101413.99
2019-04-16T06:51:45.951Z,101412.58
2019-04-16T06:54:34.685Z,101412.56
2019-04-16T06:57:26.992Z,101420.42
2019-04-16T07:00:33.714Z,101412.12
2019-04-16T07:03:20.269Z,101417.52
2019-04-16T07:06:08.890Z,101415.58
2019-04-16T07:09:03.152Z,101413.61
2019-04-16T07:11:33.263Z,101409.59
2019-04-16T07:14:02.996Z,101413.84
2019-04-16T07:16:32.806Z,101410.59
2019-04-16T07:19:02.884Z,101416.36
2019-04-16T07:21:32.739Z,101425.59
2019-04-16T07:24:02.631Z,101417.25
2019-04-16T07:26:32.534Z,101412.94
2019-04-16T07:29:08.243Z,101406.83
2019-04-16T07:31:56.985Z,101405.72
2019-04-16T07:34:51.735Z,101409.81
2019-04-16T07:37:52.426Z,101410.52
2019-04-16T07:40:43.648Z,101396.39
2019-04-16T07:43:34.824Z,101402.53
2019-04-16T07:46:22.496Z,101400.30
2019-04-16T07:49:10.290Z,101397.30
2019-04-16T07:52:13.937Z,101421.08
2019-04-16T07:55:17.619Z,101386.46
2019-04-16T07:57:47.409Z,101402.67
2019-04-16T08:00:17.930Z,101406.69
2019-04-16T08:02:50.772Z,101407.75
2019-04-16T08:05:19.351Z,101410.14
2019-04-16T08:07:49.734Z,101410.25
2019-04-16T08:10:20.643Z,101410.26
2019-04-16T08:13:00.525Z,101407.63
2019-04-16T08:15:29.677Z,101399.62
2019-04-16T08:17:59.480Z,101395.20
2019-04-16T08:20:29.372Z,101389.75
2019-04-16T08:23:03.232Z,101392.48
2019-04-16T08:25:34.010Z,101388.63
2019-04-16T08:28:07.013Z,101390.52
2019-04-16T08:30:39.308Z,101390.19
2019-04-16T08:33:10.569Z,101389.02
2019-04-16T08:35:38.948Z,101385.05
2019-04-16T08:38:08.873Z,101380.44
2019-04-16T08:40:38.737Z,101371.98
2019-04-16T08:43:08.593Z,101372.20
2019-04-16T08:45:39.844Z,101371.98
2019-04-16T08:48:09.810Z,101362.67
2019-04-16T08:50:39.469Z,101365.75
2019-04-16T08:53:13.315Z,101361.69
2019-04-16T08:55:40.780Z,101361.62
2019-04-16T08:58:12.680Z,101355.59
2019-04-16T09:00:46.650Z,101353.59
2019-04-16T09:03:15.488Z,101355.29
2019-04-16T09:05:45.399Z,101349.75
2019-04-16T09:08:43.226Z,101349.33
2019-04-16T09:11:23.335Z,101339.28
2019-04-16T09:13:51.716Z,101340.05
2019-04-16T09:16:21.457Z,101338.97
2019-04-16T09:19:11.725Z,101346.93
2019-04-16T09:21:44.356Z,101341.31
2019-04-16T09:24:32.132Z,101340.23
2019-04-16T09:27:29.652Z,101337.91
2019-04-16T09:30:17.792Z,101335.89
2019-04-16T09:32:51.945Z,101331.69
2019-04-16T09:35:30.069Z,101331.23
2019-04-16T09:38:21.135Z,101323.98
2019-04-16T09:41:08.838Z,101326.73
2019-04-16T09:43:42.430Z,101318.00
2019-04-16T09:46:21.614Z,101319.98
2019-04-16T09:48:44.220Z,101316.39
2019-04-16T09:51:18.646Z,101313.47
2019-04-16T09:53:45.757Z,101309.78
2019-04-16T09:56:31.290Z,101317.96
2019-04-16T09:59:40.402Z,101311.36
2019-04-16T10:02:16.150Z,101301.91
2019-04-16T10:04:46.107Z,101295.34
2019-04-16T10:07:15.877Z,101300.41
2019-04-16T10:09:45.814Z,101304.94
2019-04-16T10:12:15.811Z,101302.09
2019-04-16T10:14:45.541Z,101301.94
2019-04-16T10:17:16.806Z,101294.52
2019-04-16T10:19:46.623Z,101297.73
2019-04-16T10:22:16.530Z,101289.80
2019-04-16T10:25:05.298Z,101299.00
2019-04-16T10:28:01.878Z,101299.33
2019-04-16T10:30:47.188Z,101294.50
2019-04-16T10:33:17.050Z,101289.88
2019-04-16T10:35:46.935Z,101297.11
2019-04-16T10:38:35.595Z,101290.61
2019-04-16T10:41:09.138Z,101291.77
2019-04-16T10:43:56.547Z,101287.85
2019-04-16T10:46:43.893Z,101285.20
2019-04-16T10:49:47.884Z,101276.83
2019-04-16T10:52:35.130Z,101281.88
2019-04-16T10:55:29.849Z,101275.48
2019-04-16T10:58:16.745Z,101269.69
2019-04-16T11:00:58.811Z,101265.72
2019-04-16T11:03:46.721Z,101269.03
2019-04-16T11:06:35.324Z,101264.05
2019-04-16T11:09:06.944Z,101268.27
2019-04-16T11:11:37.017Z,101254.91
2019-04-16T11:14:06.799Z,101256.34
2019-04-16T11:16:38.070Z,101261.72
2019-04-16T11:19:08.174Z,101255.70
2019-04-16T11:21:38.058Z,101241.27
2019-04-16T11:24:08.157Z,101254.89
2019-04-16T11:26:38.006Z,101241.09
2019-04-16T11:29:07.827Z,101236.22
2019-04-16T11:31:38.162Z,101232.69
2019-04-16T11:34:09.581Z,101233.06
2019-04-16T11:36:39.325Z,101225.50
2019-04-16T11:39:10.721Z,101229.72
2019-04-16T11:41:40.618Z,101219.88
2019-04-16T11:44:15.592Z,101209.80
2019-04-16T11:46:43.175Z,101207.05
2019-04-16T11:49:13.111Z,101208.86
2019-04-16T11:51:43.001Z,101205.52
2019-04-16T11:54:15.120Z,101201.95
2019-04-16T11:56:45.920Z,101202.09
2019-04-16T11:59:15.841Z,101196.32
2019-04-16T12:01:56.943Z,101184.19
2019-04-16T12:04:38.031Z,101187.17
2019-04-16T12:07:26.972Z,101183.34
2019-04-16T12:10:16.521Z,101178.01
2019-04-16T12:13:09.607Z,101170.38
2019-04-16T12:15:45.262Z,101170.60
2019-04-16T12:18:31.951Z,101166.67
2019-04-16T12:21:09.686Z,101157.89
2019-04-16T12:24:11.806Z,101159.33
2019-04-16T12:27:07.170Z,101155.95
2019-04-16T12:29:55.890Z,101153.22
2019-04-16T12:32:34.082Z,101145.08
2019-04-16T12:35:21.130Z,101137.77
2019-04-16T12:38:25.058Z,101143.25
2019-04-16T12:41:27.464Z,101133.83
2019-04-16T12:44:14.551Z,101127.64
2019-04-16T12:47:01.699Z,101125.69
2019-04-16T12:49:46.588Z,101123.57
2019-04-16T12:52:25.662Z,101117.05
2019-04-16T12:55:23.781Z,101114.13
2019-04-16T12:58:10.008Z,101101.44
2019-04-16T13:00:59.815Z,101101.03
2019-04-16T13:03:58.073Z,101099.05
2019-04-16T13:06:49.402Z,101091.92
2019-04-16T13:09:38.237Z,101091.45
2019-04-16T13:12:44.970Z,101088.09
2019-04-16T13:15:29.190Z,101087.80
2019-04-16T13:18:17.995Z,101090.41
2019-04-16T13:21:06.125Z,101087.23
2019-04-16T13:23:56.030Z,101085.28
2019-04-16T13:26:31.313Z,101085.88
2019-04-16T13:29:03.231Z,101085.38
2019-04-16T13:31:33.034Z,101083.29
2019-04-16T13:34:03.077Z,101079.23
2019-04-16T13:36:32.849Z,101071.60
2019-04-16T13:39:09.522Z,101073.55
2019-04-16T13:41:40.320Z,101072.40
2019-04-16T13:44:10.692Z,101074.37
2019-04-16T13:46:40.308Z,101070.90
2019-04-16T13:49:24.379Z,101074.05
2019-04-16T13:51:52.968Z,101071.67
2019-04-16T13:54:40.834Z,101068.30
2019-04-16T13:57:14.211Z,101064.05
2019-04-16T14:00:04.841Z,101063.62
2019-04-16T14:02:52.005Z,101059.72
2019-04-16T14:05:22.986Z,101064.23
2019-04-16T14:07:52.770Z,101064.37
2019-04-16T14:10:22.889Z,101067.44
2019-04-16T14:12:52.803Z,101070.19
2019-04-16T14:15:32.266Z,101063.55
2019-04-16T14:17:59.691Z,101066.80
2019-04-16T14:20:30.257Z,101067.52
2019-04-16T14:23:00.134Z,101062.73
2019-04-16T14:25:30.050Z,101061.94
2019-04-16T14:28:03.202Z,101057.95
2019-04-16T14:30:35.460Z,101054.78
2019-04-16T14:33:07.372Z,101053.63
2019-04-16T14:35:40.316Z,101059.03
2019-04-16T14:38:10.245Z,101061.31
2019-04-16T14:40:42.323Z,101047.53
2019-04-16T14:43:14.769Z,101055.98
2019-04-16T14:45:58.368Z,101059.19
2019-04-16T14:48:21.646Z,101056.25
2019-04-16T14:50:51.426Z,101047.67
2019-04-16T14:53:36.752Z,101055.66
2019-04-16T14:56:12.669Z,101055.41
2019-04-16T14:59:07.828Z,101027.59
2019-04-16T15:01:57.023Z,101044.99
2019-04-16T15:04:33.856Z,101044.75
2019-04-16T15:07:20.973Z,101042.42
2019-04-16T15:09:56.719Z,101050.95
2019-04-16T15:12:45.310Z,101050.50
2019-04-16T15:15:41.108Z,101048.41
2019-04-16T15:18:30.905Z,101043.31
2019-04-16T15:21:17.980Z,101046.64
2019-04-16T15:24:25.196Z,101045.55
2019-04-16T15:27:12.334Z,101041.86
2019-04-16T15:30:07.077Z,101042.29
2019-04-16T15:33:09.185Z,101038.50
2019-04-16T15:35:46.695Z,101043.48
2019-04-16T15:38:39.020Z,101035.80
2019-04-16T15:41:44.606Z,101040.78
2019-04-16T15:44:24.423Z,101033.14
2019-04-16T15:47:13.940Z,101038.36
2019-04-16T15:49:55.680Z,101043.19
2019-04-16T15:52:46.533Z,101042.96
2019-04-16T15:55:29.440Z,101041.20
2019-04-16T15:58:25.110Z,101047.03
2019-04-16T16:01:00.624Z,101048.81
2019-04-16T16:04:07.155Z,101058.37
2019-04-16T16:06:43.171Z,101067.46
2019-04-16T16:09:17.999Z,101061.42
2019-04-16T16:11:55.768Z,101063.59
2019-04-16T16:14:33.157Z,101059.54
2019-04-16T16:16:59.897Z,101058.05
2019-04-16T16:19:29.718Z,101065.47
2019-04-16T16:21:59.454Z,101063.75
2019-04-16T16:24:29.331Z,101062.08
2019-04-16T16:26:59.245Z,101060.34
2019-04-16T16:29:29.205Z,101055.23
2019-04-16T16:31:59.081Z,101062.31
2019-04-16T16:34:29.098Z,101064.00
2019-04-16T16:36:58.962Z,101072.95
2019-04-16T16:39:28.780Z,101075.36
2019-04-16T16:41:58.689Z,101073.56
2019-04-16T16:44:28.429Z,101082.85
2019-04-16T16:47:23.133Z,101079.48
2019-04-16T16:49:52.915Z,101080.79
2019-04-16T16:52:31.418Z,101085.43
2019-04-16T16:55:03.566Z,101097.20
2019-04-16T16:57:41.752Z,101089.98
2019-04-16T17:00:28.570Z,101083.75
2019-04-16T17:03:14.895Z,101094.36
2019-04-16T17:05:46.175Z,101096.30
2019-04-16T17:08:15.945Z,101101.58
2019-04-16T17:10:45.780Z,101109.19
2019-04-16T17:13:18.900Z,101105.63
2019-04-16T17:15:46.948Z,101104.90
2019-04-16T17:18:16.726Z,101103.86
2019-04-16T17:20:50.072Z,101113.56
2019-04-16T17:23:18.056Z,101113.88
2019-04-16T17:25:48.023Z,101118.84
2019-04-16T17:28:18.070Z,101125.72
2019-04-16T17:30:48.077Z,101119.30
2019-04-16T17:33:18.065Z,101121.41
2019-04-16T17:35:47.811Z,101127.15
2019-04-16T17:38:17.673Z,101133.89
2019-04-16T17:40:59.015Z,101143.91
2019-04-16T17:43:33.997Z,101141.20
2019-04-16T17:46:24.780Z,101142.98
2019-04-16T17:49:11.771Z,101138.00
2019-04-16T17:52:00.231Z,101135.89
2019-04-16T17:54:38.031Z,101151.02
2019-04-16T17:57:28.962Z,101148.06
2019-04-16T18:00:15.948Z,101150.61
2019-04-16T18:03:10.595Z,101153.48
2019-04-16T18:05:48.627Z,101154.52
2019-04-16T18:08:35.652Z,101152.47
2019-04-16T18:11:18.758Z,101157.73
2019-04-16T18:13:53.404Z,101156.52
2019-04-16T18:16:45.787Z,101156.73
2019-04-16T18:19:24.866Z,101153.75
2019-04-16T18:22:11.627Z,101157.34
2019-04-16T18:24:53.627Z,101162.91
2019-04-16T18:27:45.155Z,101173.94
2019-04-16T18:30:32.358Z,101171.63
2019-04-16T18:33:40.410Z,101174.88
2019-04-16T18:36:31.890Z,101185.53
2019-04-16T18:39:19.111Z,101174.33
2019-04-16T18:41:59.002Z,101174.03
2019-04-16T18:44:51.286Z,101170.45
2019-04-16T18:47:38.672Z,101165.78
2019-04-16T18:50:22.379Z,101159.19
2019-04-16T18:52:49.554Z,101159.27
2019-04-16T18:55:19.431Z,101162.96
2019-04-16T18:57:49.347Z,101127.75
2019-04-16T19:00:37.715Z,101170.22
2019-04-16T19:03:07.695Z,101161.73
2019-04-16T19:05:37.530Z,101159.98
2019-04-16T19:08:07.657Z,101160.67
2019-04-16T19:10:38.823Z,101164.30
2019-04-16T19:13:11.214Z,101166.69
2019-04-16T19:15:41.320Z,101159.38
2019-04-16T19:18:19.587Z,101164.16
2019-04-16T19:20:43.170Z,101163.21
2019-04-16T19:23:13.037Z,101149.83
2019-04-16T19:25:42.870Z,101162.66
2019-04-16T19:28:12.882Z,101161.61
2019-04-16T19:30:42.689Z,101154.89
2019-04-16T19:33:12.551Z,101163.63
2019-04-16T19:35:42.477Z,101161.36
2019-04-16T19:38:12.362Z,101170.30
2019-04-16T19:40:42.176Z,101167.31
2019-04-16T19:43:12.083Z,101171.08
2019-04-16T19:45:43.756Z,101163.80
2019-04-16T19:48:13.406Z,101170.09
2019-04-16T19:50:44.547Z,101165.42
2019-04-16T19:53:15.135Z,101175.83
2019-04-16T19:55:45.953Z,101178.81
2019-04-16T19:58:16.370Z,101173.75
2019-04-16T20:00:46.277Z,101178.66
2019-04-16T20:03:15.957Z,101176.02
2019-04-16T20:05:47.157Z,101177.84
2019-04-16T20:08:16.833Z,101170.78
2019-04-16T20:10:48.673Z,101181.52
2019-04-16T20:13:17.973Z,101172.47
2019-04-16T20:15:47.803Z,101172.67
2019-04-16T20:18:20.454Z,101171.39
2019-04-16T20:20:50.887Z,101161.86
2019-04-16T20:23:20.713Z,101171.04
2019-04-16T20:25:51.683Z,101175.50
2019-04-16T20:28:21.480Z,101164.08
2019-04-16T20:30:57.380Z,101167.56
2019-04-16T20:33:23.167Z,101163.83
2019-04-16T20:35:53.282Z,101164.84
2019-04-16T20:38:23.089Z,101171.30
2019-04-16T20:40:52.689Z,101172.14
2019-04-16T20:43:22.554Z,101173.70
2019-04-16T20:45:52.446Z,101179.07
2019-04-16T20:48:22.447Z,101171.51
2019-04-16T20:50:53.148Z,101176.23
2019-04-16T20:53:23.896Z,101165.50
2019-04-16T20:55:53.829Z,101167.82
2019-04-16T20:58:23.776Z,101167.80
2019-04-16T21:00:54.721Z,101168.80
2019-04-16T21:03:24.817Z,101169.89
2019-04-16T21:05:58.907Z,101170.07
2019-04-16T21:08:27.322Z,101172.79
2019-04-16T21:10:59.440Z,101173.45
2019-04-16T21:13:28.898Z,101178.88
2019-04-16T21:16:01.765Z,101172.73
2019-04-16T21:18:30.194Z,101174.42
2019-04-16T21:20:59.972Z,101173.51
2019-04-16T21:23:31.942Z,101173.06
2019-04-16T21:26:01.745Z,101167.55
2019-04-16T21:28:39.135Z,101167.51
2019-04-16T21:31:19.302Z,101175.27
2019-04-16T21:34:00.964Z,101171.23
2019-04-16T21:36:40.753Z,101171.63
2019-04-16T21:39:17.193Z,101171.57
2019-04-16T21:41:44.503Z,101177.59
2019-04-16T21:44:14.379Z,101175.63
2019-04-16T21:46:44.299Z,101167.51
2019-04-16T21:49:14.390Z,101167.42
2019-04-16T21:52:18.243Z,101164.39
2019-04-16T21:54:48.226Z,101163.95
2019-04-16T21:57:18.006Z,101157.60
2019-04-16T21:59:50.263Z,101155.72
2019-04-16T22:02:22.436Z,101154.69
2019-04-16T22:04:52.064Z,101153.48
2019-04-16T22:07:24.685Z,101145.47
2019-04-16T22:09:53.619Z,101145.47
2019-04-16T22:12:23.409Z,101141.01
2019-04-16T22:14:54.234Z,101149.97
2019-04-16T22:17:25.222Z,101141.06
2019-04-16T22:20:01.458Z,101146.77
2019-04-16T22:22:27.873Z,101147.84
2019-04-16T22:24:57.932Z,101144.57
2019-04-16T22:27:27.949Z,101150.18
2019-04-16T22:29:58.026Z,101145.20
2019-04-16T22:32:30.970Z,101152.16
2019-04-16T22:35:00.543Z,101148.02
2019-04-16T22:37:30.379Z,101149.84
2019-04-16T22:40:22.515Z,101153.58
2019-04-16T22:43:20.488Z,101153.59
2019-04-16T22:46:14.971Z,101151.94
2019-04-16T22:49:01.272Z,101152.23
2019-04-16T22:51:31.108Z,101148.13
2019-04-16T22:54:00.990Z,101139.91
2019-04-16T22:56:44.565Z,101140.50
2019-04-16T22:59:14.470Z,101136.55
2019-04-16T23:01:45.704Z,101130.73
2019-04-16T23:04:15.556Z,101132.11
2019-04-16T23:06:45.333Z,101134.35
2019-04-16T23:09:17.191Z,101138.41
2019-04-16T23:11:46.751Z,101144.25
2019-04-16T23:14:16.523Z,101136.23
2019-04-16T23:16:46.447Z,101130.14
2019-04-16T23:19:17.466Z,101125.75
2019-04-16T23:21:47.802Z,101132.37
2019-04-16T23:24:20.503Z,101122.61
2019-04-16T23:26:49.212Z,101119.44
2019-04-16T23:29:19.093Z,101114.58
2019-04-16T23:31:49.108Z,101107.31
2019-04-16T23:34:19.408Z,101103.75
2019-04-16T23:36:49.488Z,101095.08
2019-04-16T23:39:19.448Z,101084.43
2019-04-16T23:41:49.321Z,101076.94
2019-04-16T23:44:50.138Z,101073.50
2019-04-16T23:47:42.871Z,101078.73
2019-04-16T23:50:45.541Z,101087.34
2019-04-16T23:53:33.422Z,101083.47
2019-04-16T23:56:17.888Z,101076.81
2019-04-16T23:59:06.554Z,101078.64
